No.3tokuyomaru — JD3132 — position and weather

sailwx.info

Track history (hours):
 
Tides and Currents Weather Stations Pressure Air Temp Water Temp Dewpoint Dewpoint Depression Visibility Wind Speed Wind Dir Waves Ship Positions

No.3tokuyomaru

Last reported at 2014-Oct-29 04:33 UTC. Time now 2014-Oct-30 14:35 UTC.
Position N 35°18' E 139°44'.

Length 67 m; draft 4.6 m.

Type: Tanker. MMSI: 431002151.

Date/timePositionNaut miles runAvg speedWind from/ knotsBaromVisibWave heightAir tempDewpointWater temp
2014-Oct-29 04:33N 35°18' E 139°44'1111.4
2014-Oct-29 03:33N 35°29' E 139°48'2 2.0
2014-Oct-29 02:33N 35°31' E 139°46'0 0.0
2014-Oct-29 01:33N 35°31' E 139°46'0 0.0
2014-Oct-29 00:33N 35°31' E 139°46'2 2.4
2014-Oct-28 23:32N 35°29' E 139°48'1 0.6
2014-Oct-28 22:33N 35°28' E 139°48'0 0.0
2014-Oct-28 21:33N 35°28' E 139°48'0 0.0
2014-Oct-28 20:33N 35°28' E 139°48'0 0.0
2014-Oct-28 19:33N 35°28' E 139°48'0 0.0
2014-Oct-28 18:33N 35°28' E 139°48'0 0.0
2014-Oct-28 17:30N 35°28' E 139°48'2 1.9
2014-Oct-28 16:33N 35°27' E 139°48'1110.8
2014-Oct-28 15:33N 35°16' E 139°46'237 4.6
2014-Oct-26 12:33N 34°37' E 135°01'1313.0
2014-Oct-26 11:33N 34°34' E 135°16'8 8.0
2014-Oct-26 10:31N 34°33' E 135°26'0 0.0
2014-Oct-26 08:33N 34°33' E 135°26'0 0.0
2014-Oct-26 06:24N 34°33' E 135°26'910.2
2014-Oct-26 05:33N 34°30' E 135°17'1312.5
2014-Oct-26 04:33N 34°21' E 135°06'1111.4
2014-Oct-26 03:33N 34°10' E 135°03'2 0.1
2014-Oct-24 14:33N 34°12' E 135°03'1613.2
2014-Oct-24 13:22N 34°27' E 135°10'1112.9
2014-Oct-24 12:32N 34°34' E 135°19'5 0.7
2014-Oct-24 05:14N 34°35' E 135°26'6 7.7
2014-Oct-24 04:31N 34°36' E 135°19'1313.3
2014-Oct-24 03:33N 34°35' E 135°04'  
Track history (hours):
 
Tides and Currents Weather Stations Pressure Air Temp Water Temp Dewpoint Dewpoint Depression Visibility Wind Speed Wind Dir Waves Ship Positions

No.3tokuyomaru

Last reported at 2014-Oct-29 04:33 UTC. Time now 2014-Oct-30 14:35 UTC.
Position N 35°18' E 139°44'.

Length 67 m; draft 4.6 m.

Type: Tanker. MMSI: 431002151.

Date/timePositionNaut miles runAvg speedWind from/ knotsBaromVisibWave heightAir tempDewpointWater temp
2014-Oct-29 04:33N 35°18' E 139°44'1111.4
2014-Oct-29 03:33N 35°29' E 139°48'2 2.0
2014-Oct-29 02:33N 35°31' E 139°46'0 0.0
2014-Oct-29 01:33N 35°31' E 139°46'0 0.0
2014-Oct-29 00:33N 35°31' E 139°46'2 2.4
2014-Oct-28 23:32N 35°29' E 139°48'1 0.6
2014-Oct-28 22:33N 35°28' E 139°48'0 0.0
2014-Oct-28 21:33N 35°28' E 139°48'0 0.0
2014-Oct-28 20:33N 35°28' E 139°48'0 0.0
2014-Oct-28 19:33N 35°28' E 139°48'0 0.0
2014-Oct-28 18:33N 35°28' E 139°48'0 0.0
2014-Oct-28 17:30N 35°28' E 139°48'2 1.9
2014-Oct-28 16:33N 35°27' E 139°48'1110.8
2014-Oct-28 15:33N 35°16' E 139°46'237 4.6
2014-Oct-26 12:33N 34°37' E 135°01'1313.0
2014-Oct-26 11:33N 34°34' E 135°16'8 8.0
2014-Oct-26 10:31N 34°33' E 135°26'0 0.0
2014-Oct-26 08:33N 34°33' E 135°26'0 0.0
2014-Oct-26 06:24N 34°33' E 135°26'910.2
2014-Oct-26 05:33N 34°30' E 135°17'1312.5
2014-Oct-26 04:33N 34°21' E 135°06'1111.4
2014-Oct-26 03:33N 34°10' E 135°03'2 0.1
2014-Oct-24 14:33N 34°12' E 135°03'1613.2
2014-Oct-24 13:22N 34°27' E 135°10'1112.9
2014-Oct-24 12:32N 34°34' E 135°19'5 0.7
2014-Oct-24 05:14N 34°35' E 135°26'6 7.7
2014-Oct-24 04:31N 34°36' E 135°19'1313.3
2014-Oct-24 03:33N 34°35' E 135°04'  

Dump ship's entire track history